CFG3AM EDDF-LIMC
Flight info
| Callsign | CFG3AM |
|---|---|
| Flight time | N/A |
| Altitude | 33000 |
| Route | ANEKI2L/18 ANEKI Y163 NATOR DCT DITON DCT BASGO Z424 RIXUV |
| Aircraft | A320/M-SDE3FGHIJ1LORVWXYZ/S |
Departure
| Time | N/A |
|---|---|
| Airport | Frankfurt Main Airport (EDDF) |
Arrival
| Time | 2026-02-19 21:17 |
|---|---|
| Airport | Milan Malpensa International Airport (LIMC) |
| Time | Latitude | Longitude | Altitude | Speed | Heading |
|---|---|---|---|---|---|
| 2026-02-19 20:27 | 49.51902 | 8.50684 | 12085 ft | 319 kts | 184° |
| 2026-02-19 20:27 | 49.49677 | 8.50390 | 12835 ft | 323 kts | 184° |
| 2026-02-19 20:28 | 49.45143 | 8.49795 | 14252 ft | 331 kts | 183° |
| 2026-02-19 20:28 | 49.42838 | 8.49491 | 14920 ft | 334 kts | 183° |
| 2026-02-19 20:28 | 49.40518 | 8.49182 | 15602 ft | 337 kts | 184° |
| 2026-02-19 20:28 | 49.38167 | 8.48868 | 16261 ft | 340 kts | 183° |
| 2026-02-19 20:29 | 49.35785 | 8.48555 | 16620 ft | 353 kts | 184° |
| 2026-02-19 20:29 | 49.33270 | 8.48231 | 16803 ft | 369 kts | 183° |
| 2026-02-19 20:29 | 49.30681 | 8.47899 | 17285 ft | 376 kts | 183° |
| 2026-02-19 20:29 | 49.28058 | 8.47564 | 17878 ft | 380 kts | 184° |
| 2026-02-19 20:30 | 49.25413 | 8.47225 | 18441 ft | 384 kts | 184° |
| 2026-02-19 20:30 | 49.22744 | 8.46878 | 18989 ft | 386 kts | 184° |
| 2026-02-19 20:30 | 49.20054 | 8.46528 | 19535 ft | 389 kts | 184° |
| 2026-02-19 20:30 | 49.17350 | 8.46176 | 20109 ft | 391 kts | 183° |
| 2026-02-19 20:31 | 49.14631 | 8.45821 | 20666 ft | 394 kts | 183° |
| 2026-02-19 20:31 | 49.11934 | 8.45471 | 21191 ft | 396 kts | 183° |
| 2026-02-19 20:31 | 49.09142 | 8.45111 | 21713 ft | 399 kts | 183° |
| 2026-02-19 20:32 | 49.03646 | 8.43824 | 22694 ft | 406 kts | 191° |
| 2026-02-19 20:32 | 49.00883 | 8.42856 | 23185 ft | 409 kts | 191° |
| 2026-02-19 20:32 | 48.98101 | 8.41877 | 23628 ft | 411 kts | 191° |
| 2026-02-19 20:32 | 48.95304 | 8.40896 | 24033 ft | 413 kts | 191° |
| 2026-02-19 20:33 | 48.92497 | 8.39913 | 24421 ft | 415 kts | 191° |
| 2026-02-19 20:33 | 48.89675 | 8.38929 | 24801 ft | 417 kts | 191° |
| 2026-02-19 20:33 | 48.86837 | 8.37946 | 25179 ft | 419 kts | 191° |
| 2026-02-19 20:33 | 48.83983 | 8.36963 | 25549 ft | 421 kts | 191° |
| 2026-02-19 20:34 | 48.81122 | 8.35982 | 25912 ft | 423 kts | 191° |
| 2026-02-19 20:34 | 48.78252 | 8.34992 | 26268 ft | 425 kts | 191° |
| 2026-02-19 20:34 | 48.75361 | 8.33966 | 26621 ft | 427 kts | 192° |
| 2026-02-19 20:35 | 48.69560 | 8.31835 | 27298 ft | 431 kts | 192° |
| 2026-02-19 20:35 | 48.66643 | 8.30759 | 27622 ft | 433 kts | 192° |
| 2026-02-19 20:35 | 48.63708 | 8.29677 | 27940 ft | 435 kts | 192° |
| 2026-02-19 20:36 | 48.57799 | 8.27514 | 28523 ft | 439 kts | 192° |
| 2026-02-19 20:36 | 48.54823 | 8.26435 | 28801 ft | 441 kts | 192° |
| 2026-02-19 20:36 | 48.51826 | 8.25408 | 29071 ft | 442 kts | 188° |
| 2026-02-19 20:36 | 48.48808 | 8.24941 | 29319 ft | 442 kts | 180° |
| 2026-02-19 20:37 | 48.42694 | 8.25902 | 29826 ft | 444 kts | 169° |
| 2026-02-19 20:37 | 48.39648 | 8.26647 | 30111 ft | 444 kts | 170° |
| 2026-02-19 20:37 | 48.36596 | 8.27389 | 30349 ft | 445 kts | 170° |
| 2026-02-19 20:38 | 48.33538 | 8.28133 | 30555 ft | 447 kts | 171° |
| 2026-02-19 20:38 | 48.30454 | 8.28880 | 30726 ft | 449 kts | 171° |
| 2026-02-19 20:38 | 48.27360 | 8.29630 | 30926 ft | 451 kts | 171° |
| 2026-02-19 20:38 | 48.24256 | 8.30383 | 31154 ft | 452 kts | 171° |
| 2026-02-19 20:39 | 48.21142 | 8.31135 | 31391 ft | 454 kts | 171° |
| 2026-02-19 20:39 | 48.18029 | 8.31873 | 31617 ft | 455 kts | 173° |
| 2026-02-19 20:39 | 48.14867 | 8.32175 | 31843 ft | 455 kts | 180° |
| 2026-02-19 20:40 | 48.08499 | 8.32256 | 32221 ft | 460 kts | 180° |
| 2026-02-19 20:40 | 48.05296 | 8.32297 | 32451 ft | 461 kts | 180° |
| 2026-02-19 20:40 | 48.02081 | 8.32341 | 32675 ft | 463 kts | 180° |
| 2026-02-19 20:40 | 47.98861 | 8.32387 | 32791 ft | 463 kts | 180° |
| 2026-02-19 20:41 | 47.92422 | 8.32477 | 32803 ft | 462 kts | 181° |
| 2026-02-19 20:41 | 47.85980 | 8.32548 | 32806 ft | 464 kts | 181° |
| 2026-02-19 20:42 | 47.79512 | 8.32632 | 32805 ft | 465 kts | 181° |
| 2026-02-19 20:42 | 47.73044 | 8.32733 | 32805 ft | 465 kts | 181° |
| 2026-02-19 20:43 | 47.66578 | 8.32828 | 32800 ft | 465 kts | 181° |
| 2026-02-19 20:44 | 47.56875 | 8.32956 | 32792 ft | 465 kts | 181° |
| 2026-02-19 20:44 | 47.50448 | 8.33047 | 32791 ft | 465 kts | 181° |
| 2026-02-19 20:45 | 47.43975 | 8.33138 | 32786 ft | 465 kts | 181° |
| 2026-02-19 20:45 | 47.37500 | 8.33229 | 32789 ft | 465 kts | 181° |
| 2026-02-19 20:46 | 47.31031 | 8.33325 | 32790 ft | 465 kts | 181° |
| 2026-02-19 20:46 | 47.24568 | 8.33822 | 32786 ft | 465 kts | 176° |
| 2026-02-19 20:47 | 47.18128 | 8.34832 | 32779 ft | 466 kts | 175° |
| 2026-02-19 20:47 | 47.11692 | 8.35882 | 32774 ft | 466 kts | 176° |
| 2026-02-19 20:48 | 47.02012 | 8.37244 | 32796 ft | 466 kts | 176° |
| 2026-02-19 20:48 | 46.95556 | 8.38087 | 32795 ft | 466 kts | 176° |
| 2026-02-19 20:49 | 46.89101 | 8.38937 | 32794 ft | 466 kts | 176° |
| 2026-02-19 20:49 | 46.82629 | 8.39811 | 32780 ft | 467 kts | 176° |
| 2026-02-19 20:50 | 46.76201 | 8.40684 | 32781 ft | 468 kts | 176° |
| 2026-02-19 20:50 | 46.72952 | 8.41123 | 32537 ft | 469 kts | 176° |
| 2026-02-19 20:50 | 46.69711 | 8.41558 | 32195 ft | 467 kts | 176° |
| 2026-02-19 20:51 | 46.66458 | 8.41996 | 31062 ft | 472 kts | 177° |
| 2026-02-19 20:51 | 46.63185 | 8.42437 | 30063 ft | 471 kts | 177° |
| 2026-02-19 20:51 | 46.59934 | 8.42876 | 29176 ft | 465 kts | 177° |
| 2026-02-19 20:51 | 46.56757 | 8.43307 | 28590 ft | 454 kts | 176° |
| 2026-02-19 20:52 | 46.53590 | 8.43735 | 27928 ft | 447 kts | 176° |
| 2026-02-19 20:52 | 46.50555 | 8.44138 | 27289 ft | 441 kts | 176° |
| 2026-02-19 20:52 | 46.47521 | 8.44538 | 26641 ft | 435 kts | 176° |
| 2026-02-19 20:52 | 46.44530 | 8.44936 | 26030 ft | 430 kts | 177° |
| 2026-02-19 20:53 | 46.41559 | 8.45333 | 25394 ft | 426 kts | 176° |
| 2026-02-19 20:53 | 46.38621 | 8.45725 | 24807 ft | 422 kts | 175° |
| 2026-02-19 20:53 | 46.35721 | 8.46108 | 24313 ft | 416 kts | 175° |
| 2026-02-19 20:53 | 46.32859 | 8.46485 | 23712 ft | 412 kts | 175° |
| 2026-02-19 20:54 | 46.30008 | 8.46861 | 23135 ft | 409 kts | 175° |
| 2026-02-19 20:54 | 46.27191 | 8.47233 | 22558 ft | 404 kts | 175° |
| 2026-02-19 20:54 | 46.24410 | 8.47606 | 22060 ft | 399 kts | 175° |
| 2026-02-19 20:54 | 46.21665 | 8.47994 | 21576 ft | 395 kts | 174° |
| 2026-02-19 20:55 | 46.18950 | 8.48389 | 21130 ft | 390 kts | 174° |
| 2026-02-19 20:55 | 46.16262 | 8.48785 | 20697 ft | 385 kts | 174° |
| 2026-02-19 20:55 | 46.13611 | 8.49170 | 20215 ft | 382 kts | 174° |
| 2026-02-19 20:55 | 46.10996 | 8.49737 | 19777 ft | 379 kts | 167° |
| 2026-02-19 20:56 | 46.08486 | 8.50874 | 19323 ft | 376 kts | 159° |
| 2026-02-19 20:56 | 46.06054 | 8.52207 | 18882 ft | 373 kts | 159° |
| 2026-02-19 20:56 | 46.03631 | 8.53524 | 18425 ft | 371 kts | 159° |
| 2026-02-19 20:56 | 46.01219 | 8.54826 | 17977 ft | 370 kts | 160° |
| 2026-02-19 20:57 | 45.98816 | 8.56114 | 17617 ft | 365 kts | 160° |
| 2026-02-19 20:57 | 45.96473 | 8.57367 | 17478 ft | 354 kts | 160° |
| 2026-02-19 20:57 | 45.94195 | 8.58588 | 17286 ft | 345 kts | 160° |
| 2026-02-19 20:57 | 45.91968 | 8.59781 | 17007 ft | 340 kts | 160° |
| 2026-02-19 20:58 | 45.89816 | 8.61167 | 16735 ft | 339 kts | 150° |
| 2026-02-19 20:58 | 45.87899 | 8.63105 | 16468 ft | 338 kts | 140° |
| 2026-02-19 20:58 | 45.86070 | 8.65242 | 16061 ft | 339 kts | 141° |
| 2026-02-19 20:58 | 45.84233 | 8.67377 | 15561 ft | 342 kts | 141° |
| 2026-02-19 20:59 | 45.82393 | 8.69507 | 15262 ft | 337 kts | 140° |
| 2026-02-19 20:59 | 45.80572 | 8.71611 | 14897 ft | 336 kts | 140° |
| 2026-02-19 20:59 | 45.78763 | 8.73703 | 14335 ft | 333 kts | 140° |
| 2026-02-19 20:59 | 45.76961 | 8.75778 | 13685 ft | 332 kts | 142° |
| 2026-02-19 21:00 | 45.75030 | 8.77488 | 13054 ft | 329 kts | 152° |
| 2026-02-19 21:00 | 45.73004 | 8.79037 | 12565 ft | 324 kts | 152° |
| 2026-02-19 21:00 | 45.71058 | 8.80532 | 12090 ft | 320 kts | 152° |
| 2026-02-19 21:00 | 45.69095 | 8.82042 | 11601 ft | 319 kts | 152° |
| 2026-02-19 21:01 | 45.67152 | 8.83535 | 11133 ft | 314 kts | 152° |
| 2026-02-19 21:01 | 45.65243 | 8.84997 | 10825 ft | 305 kts | 152° |
| 2026-02-19 21:01 | 45.63415 | 8.86401 | 10666 ft | 292 kts | 152° |
| 2026-02-19 21:01 | 45.61602 | 8.87609 | 10379 ft | 284 kts | 162° |
| 2026-02-19 21:02 | 45.59706 | 8.88250 | 10001 ft | 279 kts | 170° |
| 2026-02-19 21:02 | 45.57793 | 8.88772 | 9427 ft | 281 kts | 169° |
| 2026-02-19 21:02 | 45.55879 | 8.89291 | 8806 ft | 278 kts | 169° |
| 2026-02-19 21:02 | 45.53993 | 8.89801 | 8197 ft | 275 kts | 169° |
| 2026-02-19 21:03 | 45.52135 | 8.90305 | 7747 ft | 266 kts | 169° |
| 2026-02-19 21:03 | 45.50328 | 8.90796 | 7444 ft | 265 kts | 169° |
| 2026-02-19 21:03 | 45.48525 | 8.91288 | 7141 ft | 261 kts | 169° |
| 2026-02-19 21:03 | 45.46768 | 8.91768 | 6937 ft | 254 kts | 169° |
| 2026-02-19 21:04 | 45.45038 | 8.92239 | 6586 ft | 254 kts | 169° |
| 2026-02-19 21:04 | 45.43292 | 8.92713 | 6171 ft | 256 kts | 169° |
| 2026-02-19 21:04 | 45.41536 | 8.93189 | 5717 ft | 258 kts | 169° |
| 2026-02-19 21:04 | 45.39769 | 8.93665 | 5280 ft | 257 kts | 169° |
| 2026-02-19 21:05 | 45.38060 | 8.94115 | 4971 ft | 245 kts | 173° |
| 2026-02-19 21:05 | 45.36383 | 8.93897 | 4674 ft | 242 kts | 205° |
| 2026-02-19 21:05 | 45.35067 | 8.92493 | 4497 ft | 236 kts | 235° |
| 2026-02-19 21:05 | 45.34157 | 8.90566 | 4314 ft | 235 kts | 231° |
| 2026-02-19 21:06 | 45.32839 | 8.89230 | 4130 ft | 236 kts | 198° |
| 2026-02-19 21:06 | 45.31216 | 8.89076 | 4006 ft | 237 kts | 172° |
| 2026-02-19 21:06 | 45.29615 | 8.89534 | 3959 ft | 238 kts | 167° |
| 2026-02-19 21:06 | 45.27970 | 8.90017 | 3961 ft | 238 kts | 170° |
| 2026-02-19 21:07 | 45.26338 | 8.90434 | 3968 ft | 239 kts | 171° |
| 2026-02-19 21:07 | 45.24685 | 8.90831 | 3962 ft | 242 kts | 178° |
| 2026-02-19 21:07 | 45.23131 | 8.90436 | 3954 ft | 222 kts | 211° |
| 2026-02-19 21:07 | 45.22062 | 8.88964 | 3951 ft | 209 kts | 246° |
| 2026-02-19 21:08 | 45.21822 | 8.87022 | 3956 ft | 204 kts | 280° |
| 2026-02-19 21:08 | 45.22354 | 8.85181 | 3965 ft | 204 kts | 300° |
| 2026-02-19 21:08 | 45.23145 | 8.83503 | 3958 ft | 205 kts | 310° |
| 2026-02-19 21:08 | 45.24333 | 8.82422 | 3962 ft | 207 kts | 343° |
| 2026-02-19 21:09 | 45.25789 | 8.82352 | 3969 ft | 210 kts | 4° |
| 2026-02-19 21:09 | 45.27233 | 8.82200 | 3960 ft | 209 kts | 347° |
| 2026-02-19 21:09 | 45.28636 | 8.81762 | 3954 ft | 209 kts | 347° |
| 2026-02-19 21:09 | 45.30062 | 8.81349 | 3989 ft | 209 kts | 348° |
| 2026-02-19 21:10 | 45.31486 | 8.80955 | 3956 ft | 209 kts | 348° |
| 2026-02-19 21:10 | 45.32913 | 8.80565 | 3946 ft | 209 kts | 348° |
| 2026-02-19 21:10 | 45.34338 | 8.80176 | 3947 ft | 209 kts | 348° |
| 2026-02-19 21:10 | 45.35764 | 8.79786 | 3977 ft | 209 kts | 348° |
| 2026-02-19 21:11 | 45.37189 | 8.79396 | 3979 ft | 209 kts | 348° |
| 2026-02-19 21:11 | 45.38617 | 8.79005 | 3979 ft | 209 kts | 348° |
| 2026-02-19 21:11 | 45.40040 | 8.78616 | 3979 ft | 209 kts | 348° |
| 2026-02-19 21:11 | 45.41463 | 8.78226 | 3978 ft | 208 kts | 348° |
| 2026-02-19 21:12 | 45.42883 | 8.77837 | 3975 ft | 203 kts | 348° |
| 2026-02-19 21:12 | 45.44213 | 8.77472 | 4001 ft | 189 kts | 349° |
| 2026-02-19 21:12 | 45.45492 | 8.77121 | 3913 ft | 186 kts | 349° |
| 2026-02-19 21:12 | 45.46756 | 8.76774 | 3707 ft | 184 kts | 348° |
| 2026-02-19 21:13 | 45.48012 | 8.76429 | 3470 ft | 184 kts | 348° |
| 2026-02-19 21:13 | 45.49266 | 8.76084 | 3228 ft | 183 kts | 348° |
| 2026-02-19 21:13 | 45.50512 | 8.75742 | 2986 ft | 182 kts | 348° |
| 2026-02-19 21:13 | 45.51747 | 8.75402 | 2740 ft | 178 kts | 348° |
| 2026-02-19 21:14 | 45.52939 | 8.75075 | 2502 ft | 173 kts | 348° |
| 2026-02-19 21:14 | 45.54080 | 8.74761 | 2272 ft | 161 kts | 347° |
| 2026-02-19 21:14 | 45.55125 | 8.74473 | 2079 ft | 146 kts | 347° |
| 2026-02-19 21:14 | 45.56088 | 8.74208 | 1877 ft | 140 kts | 347° |
| 2026-02-19 21:15 | 45.57041 | 8.73945 | 1655 ft | 139 kts | 347° |
| 2026-02-19 21:15 | 45.57984 | 8.73683 | 1465 ft | 138 kts | 347° |
| 2026-02-19 21:15 | 45.58924 | 8.73415 | 1261 ft | 137 kts | 347° |
| 2026-02-19 21:15 | 45.59857 | 8.73155 | 1064 ft | 136 kts | 347° |
| 2026-02-19 21:16 | 45.60787 | 8.72903 | 885 ft | 135 kts | 347° |
| 2026-02-19 21:16 | 45.61696 | 8.72657 | 751 ft | 125 kts | 347° |
| 2026-02-19 21:16 | 45.62206 | 8.72513 | 745 ft | 98 kts | 349° |
| 2026-02-19 21:16 | 45.62731 | 8.72370 | 745 ft | 64 kts | 349° |
| 2026-02-19 21:17 | 45.63067 | 8.72252 | 747 ft | 31 kts | 329° |
| 2026-02-19 21:17 | 45.63210 | 8.72094 | 750 ft | 11 kts | 319° |
| 2026-02-19 21:17 | 45.63268 | 8.72023 | 748 ft | 12 kts | 320° |
| 2026-02-19 21:17 | 45.63311 | 8.71933 | 751 ft | 12 kts | 260° |
| 2026-02-19 21:18 | 45.63292 | 8.71813 | 751 ft | 13 kts | 258° |
| 2026-02-19 21:18 | 45.63267 | 8.71681 | 751 ft | 14 kts | 229° |
| 2026-02-19 21:18 | 45.63174 | 8.71690 | 751 ft | 13 kts | 167° |
| 2026-02-19 21:18 | 45.63091 | 8.71714 | 748 ft | 11 kts | 170° |
| 2026-02-19 21:19 | 45.63018 | 8.71731 | 752 ft | 10 kts | 170° |
| 2026-02-19 21:19 | 45.62955 | 8.71747 | 751 ft | 8 kts | 170° |
| 2026-02-19 21:19 | 45.62902 | 8.71759 | 752 ft | 7 kts | 170° |
| 2026-02-19 21:19 | 45.62857 | 8.71771 | 753 ft | 6 kts | 169° |
| 2026-02-19 21:20 | 45.62820 | 8.71781 | 750 ft | 5 kts | 169° |
| 2026-02-19 21:20 | 45.62790 | 8.71790 | 749 ft | 4 kts | 169° |
| 2026-02-19 21:20 | 45.62750 | 8.71801 | 753 ft | 9 kts | 169° |
| 2026-02-19 21:20 | 45.62666 | 8.71814 | 751 ft | 14 kts | 196° |
| 2026-02-19 21:21 | 45.62636 | 8.71723 | 752 ft | 9 kts | 261° |
| 2026-02-19 21:21 | 45.62648 | 8.71647 | 750 ft | 8 kts | 338° |
| 2026-02-19 21:21 | 45.62699 | 8.71633 | 753 ft | 5 kts | 349° |
| 2026-02-19 21:21 | 45.62706 | 8.71631 | 753 ft | 0 kts | 349° |